sensor_id;sensor_type;location;lat;lon;timestamp;pressure;altitude;pressure_sealevel;temperature;humidity
49835;BME280;35729;52.090;13.162;2023-02-28T00:01:33;102566.53;;;0.06;79.53
49835;BME280;35729;52.090;13.162;2023-02-28T00:04:02;102572.53;;;0.05;79.46
49835;BME280;35729;52.090;13.162;2023-02-28T00:06:31;102572.53;;;0.05;79.36
49835;BME280;35729;52.090;13.162;2023-02-28T00:09:02;102574.22;;;0.05;79.46
49835;BME280;35729;52.090;13.162;2023-02-28T00:11:30;102571.63;;;0.05;79.68
49835;BME280;35729;52.090;13.162;2023-02-28T00:13:59;102565.53;;;0.03;79.82
49835;BME280;35729;52.090;13.162;2023-02-28T00:16:27;102572.38;;;0.02;79.91
49835;BME280;35729;52.090;13.162;2023-02-28T00:18:56;102568.84;;;0.00;79.92
49835;BME280;35729;52.090;13.162;2023-02-28T00:21:24;102567.94;;;-0.01;79.92
49835;BME280;35729;52.090;13.162;2023-02-28T00:23:52;102565.28;;;-0.02;80.13
49835;BME280;35729;52.090;13.162;2023-02-28T00:26:23;102568.66;;;-0.03;80.13
49835;BME280;35729;52.090;13.162;2023-02-28T00:28:52;102575.53;;;-0.04;79.80
49835;BME280;35729;52.090;13.162;2023-02-28T00:31:20;102572.84;;;-0.05;80.00
49835;BME280;35729;52.090;13.162;2023-02-28T00:33:49;102580.44;;;-0.08;80.12
49835;BME280;35729;52.090;13.162;2023-02-28T00:36:17;102576.03;;;-0.11;80.21
49835;BME280;35729;52.090;13.162;2023-02-28T00:38:46;102570.78;;;-0.12;80.32
49835;BME280;35729;52.090;13.162;2023-02-28T00:41:14;102574.25;;;-0.12;80.74
49835;BME280;35729;52.090;13.162;2023-02-28T00:43:45;102579.41;;;-0.12;80.89
49835;BME280;35729;52.090;13.162;2023-02-28T00:46:14;102577.63;;;-0.13;80.74
49835;BME280;35729;52.090;13.162;2023-02-28T00:48:42;102574.97;;;-0.14;81.08
49835;BME280;35729;52.090;13.162;2023-02-28T00:51:11;102579.34;;;-0.13;81.03
49835;BME280;35729;52.090;13.162;2023-02-28T00:53:39;102579.34;;;-0.13;81.10
49835;BME280;35729;52.090;13.162;2023-02-28T00:56:08;102579.34;;;-0.13;81.49
49835;BME280;35729;52.090;13.162;2023-02-28T00:58:36;102578.53;;;-0.12;81.30
49835;BME280;35729;52.090;13.162;2023-02-28T01:01:07;102577.63;;;-0.13;81.57
49835;BME280;35729;52.090;13.162;2023-02-28T01:03:36;102578.53;;;-0.12;81.44
49835;BME280;35729;52.090;13.162;2023-02-28T01:06:05;102581.97;;;-0.12;81.50
49835;BME280;35729;52.090;13.162;2023-02-28T01:08:33;102579.41;;;-0.12;81.42
49835;BME280;35729;52.090;13.162;2023-02-28T01:11:07;102576.81;;;-0.12;81.63
49835;BME280;35729;52.090;13.162;2023-02-28T01:13:36;102579.34;;;-0.13;81.58
49835;BME280;35729;52.090;13.162;2023-02-28T01:16:08;102579.34;;;-0.13;81.71
49835;BME280;35729;52.090;13.162;2023-02-28T01:18:37;102581.09;;;-0.12;81.82
49835;BME280;35729;52.090;13.162;2023-02-28T01:21:06;102581.09;;;-0.12;81.56
49835;BME280;35729;52.090;13.162;2023-02-28T01:23:35;102570.63;;;-0.15;81.78
49835;BME280;35729;52.090;13.162;2023-02-28T01:26:05;102571.59;;;-0.13;81.76
49835;BME280;35729;52.090;13.162;2023-02-28T01:28:34;102568.03;;;-0.15;81.84
49835;BME280;35729;52.090;13.162;2023-02-28T01:31:02;102560.28;;;-0.15;81.73
49835;BME280;35729;52.090;13.162;2023-02-28T01:33:34;102562.81;;;-0.17;81.88
49835;BME280;35729;52.090;13.162;2023-02-28T01:36:05;102565.53;;;-0.14;81.59
49835;BME280;35729;52.090;13.162;2023-02-28T01:38:34;102566.34;;;-0.15;81.71
49835;BME280;35729;52.090;13.162;2023-02-28T01:41:03;102570.63;;;-0.15;81.61
49835;BME280;35729;52.090;13.162;2023-02-28T01:46:20;102564.41;;;-0.19;81.40
49835;BME280;35729;52.090;13.162;2023-02-28T01:48:53;102555.66;;;-0.23;81.18
49835;BME280;35729;52.090;13.162;2023-02-28T01:51:25;102565.13;;;-0.22;81.26
49835;BME280;35729;52.090;13.162;2023-02-28T01:53:59;102561.69;;;-0.22;81.48
49835;BME280;35729;52.090;13.162;2023-02-28T01:56:30;102561.69;;;-0.22;81.30
49835;BME280;35729;52.090;13.162;2023-02-28T01:59:01;102559.91;;;-0.23;81.34
49835;BME280;35729;52.090;13.162;2023-02-28T02:01:30;102553.88;;;-0.24;81.58
49835;BME280;35729;52.090;13.162;2023-02-28T02:04:03;102549.50;;;-0.25;81.23
49835;BME280;35729;52.090;13.162;2023-02-28T02:06:36;102552.03;;;-0.26;81.35
49835;BME280;35729;52.090;13.162;2023-02-28T02:09:05;102555.31;;;-0.29;81.53
49835;BME280;35729;52.090;13.162;2023-02-28T02:11:34;102557.81;;;-0.30;81.55
49835;BME280;35729;52.090;13.162;2023-02-28T02:14:23;102553.38;;;-0.33;81.51
49835;BME280;35729;52.090;13.162;2023-02-28T02:17:08;102551.50;;;-0.36;81.60
49835;BME280;35729;52.090;13.162;2023-02-28T02:25:48;102548.31;;;-0.48;81.82
49835;BME280;35729;52.090;13.162;2023-02-28T02:31:52;102550.47;;;-0.56;82.02
49835;BME280;35729;52.090;13.162;2023-02-28T02:34:50;102548.38;;;-0.63;82.08
49835;BME280;35729;52.090;13.162;2023-02-28T02:37:28;102551.69;;;-0.66;82.35
49835;BME280;35729;52.090;13.162;2023-02-28T02:40:03;102554.88;;;-0.70;82.15
49835;BME280;35729;52.090;13.162;2023-02-28T02:42:39;102552.16;;;-0.73;82.30
49835;BME280;35729;52.090;13.162;2023-02-28T02:45:11;102558.84;;;-0.76;82.32
49835;BME280;35729;52.090;13.162;2023-02-28T02:47:43;102554.25;;;-0.82;82.61
49835;BME280;35729;52.090;13.162;2023-02-28T02:50:19;102559.94;;;-0.88;82.52
49835;BME280;35729;52.090;13.162;2023-02-28T02:52:54;102558.00;;;-0.92;82.88
49835;BME280;35729;52.090;13.162;2023-02-28T02:55:24;102555.09;;;-0.98;82.86
49835;BME280;35729;52.090;13.162;2023-02-28T02:57:56;102557.25;;;-1.06;82.94
49835;BME280;35729;52.090;13.162;2023-02-28T03:00:31;102557.97;;;-1.08;83.19
49835;BME280;35729;52.090;13.162;2023-02-28T03:03:02;102558.50;;;-1.14;83.29
49835;BME280;35729;52.090;13.162;2023-02-28T03:05:35;102559.94;;;-1.19;83.54
49835;BME280;35729;52.090;13.162;2023-02-28T03:08:07;102564.84;;;-1.24;83.55
49835;BME280;35729;52.090;13.162;2023-02-28T03:10:38;102560.31;;;-1.28;83.61
49835;BME280;35729;52.090;13.162;2023-02-28T03:13:40;102557.50;;;-1.33;83.95
49835;BME280;35729;52.090;13.162;2023-02-28T03:16:28;102563.38;;;-1.35;84.17
49835;BME280;35729;52.090;13.162;2023-02-28T03:19:03;102563.97;;;-1.39;84.01
49835;BME280;35729;52.090;13.162;2023-02-28T03:21:43;102561.03;;;-1.45;84.31
49835;BME280;35729;52.090;13.162;2023-02-28T03:24:18;102560.69;;;-1.52;84.37
49835;BME280;35729;52.090;13.162;2023-02-28T03:26:52;102561.31;;;-1.56;84.69
49835;BME280;35729;52.090;13.162;2023-02-28T03:29:29;102563.75;;;-1.59;84.66
49835;BME280;35729;52.090;13.162;2023-02-28T03:32:05;102565.16;;;-1.64;84.69
49835;BME280;35729;52.090;13.162;2023-02-28T03:34:42;102563.91;;;-1.71;85.03
49835;BME280;35729;52.090;13.162;2023-02-28T03:37:20;102561.88;;;-1.76;85.00
49835;BME280;35729;52.090;13.162;2023-02-28T03:39:54;102564.16;;;-1.81;85.16
49835;BME280;35729;52.090;13.162;2023-02-28T03:42:28;102567.28;;;-1.87;85.32
49835;BME280;35729;52.090;13.162;2023-02-28T03:44:59;102571.28;;;-1.92;85.77
49835;BME280;35729;52.090;13.162;2023-02-28T03:47:32;102576.16;;;-1.97;85.58
49835;BME280;35729;52.090;13.162;2023-02-28T03:50:07;102581.00;;;-2.01;85.70
49835;BME280;35729;52.090;13.162;2023-02-28T03:52:42;102583.31;;;-2.06;86.08
49835;BME280;35729;52.090;13.162;2023-02-28T03:55:15;102575.16;;;-2.14;86.26
49835;BME280;35729;52.090;13.162;2023-02-28T03:57:53;102578.22;;;-2.19;86.20
49835;BME280;35729;52.090;13.162;2023-02-28T04:00:30;102578.84;;;-2.23;86.32
49835;BME280;35729;52.090;13.162;2023-02-28T04:03:00;102581.06;;;-2.30;86.63
49835;BME280;35729;52.090;13.162;2023-02-28T04:05:29;102576.59;;;-2.32;86.68
49835;BME280;35729;52.090;13.162;2023-02-28T04:08:07;102582.38;;;-2.36;86.99
49835;BME280;35729;52.090;13.162;2023-02-28T04:10:36;102581.28;;;-2.40;87.04
49835;BME280;35729;52.090;13.162;2023-02-28T04:13:04;102582.88;;;-2.42;87.13
49835;BME280;35729;52.090;13.162;2023-02-28T04:15:33;102584.34;;;-2.46;86.98
49835;BME280;35729;52.090;13.162;2023-02-28T04:18:02;102585.84;;;-2.49;87.00
49835;BME280;35729;52.090;13.162;2023-02-28T04:20:30;102588.25;;;-2.52;87.18
49835;BME280;35729;52.090;13.162;2023-02-28T04:23:08;102584.59;;;-2.56;87.20
49835;BME280;35729;52.090;13.162;2023-02-28T04:25:36;102592.13;;;-2.59;87.56
49835;BME280;35729;52.090;13.162;2023-02-28T04:28:06;102590.03;;;-2.65;87.58
49835;BME280;35729;52.090;13.162;2023-02-28T04:30:40;102586.47;;;-2.67;87.71
49835;BME280;35729;52.090;13.162;2023-02-28T04:33:08;102587.31;;;-2.68;87.68
49835;BME280;35729;52.090;13.162;2023-02-28T04:35:37;102592.22;;;-2.71;87.59
49835;BME280;35729;52.090;13.162;2023-02-28T04:38:08;102596.41;;;-2.73;88.00
49835;BME280;35729;52.090;13.162;2023-02-28T04:40:36;102595.31;;;-2.76;87.69
49835;BME280;35729;52.090;13.162;2023-02-28T04:43:05;102589.97;;;-2.80;87.84
49835;BME280;35729;52.090;13.162;2023-02-28T04:45:33;102593.25;;;-2.82;87.88
49835;BME280;35729;52.090;13.162;2023-02-28T04:48:03;102596.50;;;-2.85;87.93
49835;BME280;35729;52.090;13.162;2023-02-28T04:50:31;102602.34;;;-2.87;88.09
49835;BME280;35729;52.090;13.162;2023-02-28T04:52:59;102596.13;;;-2.91;88.26
49835;BME280;35729;52.090;13.162;2023-02-28T04:55:30;102590.00;;;-2.93;88.23
49835;BME280;35729;52.090;13.162;2023-02-28T04:57:59;102597.50;;;-2.96;88.25
49835;BME280;35729;52.090;13.162;2023-02-28T05:00:27;102607.59;;;-2.99;88.51
49835;BME280;35729;52.090;13.162;2023-02-28T05:02:56;102598.81;;;-3.03;88.51
49835;BME280;35729;52.090;13.162;2023-02-28T05:05:24;102597.03;;;-3.04;88.47
49835;BME280;35729;52.090;13.162;2023-02-28T05:07:53;102602.06;;;-3.05;88.69
49835;BME280;35729;52.090;13.162;2023-02-28T05:10:22;102600.19;;;-3.08;88.88
49835;BME280;35729;52.090;13.162;2023-02-28T05:12:53;102599.19;;;-3.10;88.81
49835;BME280;35729;52.090;13.162;2023-02-28T05:15:22;102602.47;;;-3.13;88.99
49835;BME280;35729;52.090;13.162;2023-02-28T05:17:50;102604.03;;;-3.15;89.05
49835;BME280;35729;52.090;13.162;2023-02-28T05:20:18;102612.44;;;-3.17;89.07
49835;BME280;35729;52.090;13.162;2023-02-28T05:22:47;102615.69;;;-3.20;89.12
49835;BME280;35729;52.090;13.162;2023-02-28T05:25:17;102612.94;;;-3.23;89.27
49835;BME280;35729;52.090;13.162;2023-02-28T05:27:47;102612.84;;;-3.24;89.46
49835;BME280;35729;52.090;13.162;2023-02-28T05:30:19;102611.84;;;-3.27;89.49
49835;BME280;35729;52.090;13.162;2023-02-28T05:32:50;102610.84;;;-3.29;89.53
49835;BME280;35729;52.090;13.162;2023-02-28T05:35:19;102621.94;;;-3.30;89.60
49835;BME280;35729;52.090;13.162;2023-02-28T05:37:47;102624.38;;;-3.31;89.61
49835;BME280;35729;52.090;13.162;2023-02-28T05:40:16;102620.75;;;-3.35;89.70
49835;BME280;35729;52.090;13.162;2023-02-28T05:42:45;102629.13;;;-3.37;89.63
49835;BME280;35729;52.090;13.162;2023-02-28T05:45:14;102627.34;;;-3.38;89.77
49835;BME280;35729;52.090;13.162;2023-02-28T05:47:45;102623.78;;;-3.40;89.72
49835;BME280;35729;52.090;13.162;2023-02-28T05:50:13;102622.78;;;-3.42;89.97
49835;BME280;35729;52.090;13.162;2023-02-28T05:52:42;102620.81;;;-3.47;89.85
49835;BME280;35729;52.090;13.162;2023-02-28T05:55:10;102631.84;;;-3.48;90.03
49835;BME280;35729;52.090;13.162;2023-02-28T05:57:39;102633.44;;;-3.50;90.30
49835;BME280;35729;52.090;13.162;2023-02-28T06:00:10;102635.00;;;-3.52;90.21
49835;BME280;35729;52.090;13.162;2023-02-28T06:02:40;102635.78;;;-3.53;90.32
49835;BME280;35729;52.090;13.162;2023-02-28T06:05:14;102638.34;;;-3.53;90.32
49835;BME280;35729;52.090;13.162;2023-02-28T06:07:43;102639.28;;;-3.52;90.57
49835;BME280;35729;52.090;13.162;2023-02-28T06:10:11;102635.78;;;-3.53;90.52
49835;BME280;35729;52.090;13.162;2023-02-28T06:12:40;102644.41;;;-3.52;90.38
49835;BME280;35729;52.090;13.162;2023-02-28T06:15:12;102646.19;;;-3.51;90.54
49835;BME280;35729;52.090;13.162;2023-02-28T06:17:41;102645.28;;;-3.52;90.31
49835;BME280;35729;52.090;13.162;2023-02-28T06:20:12;102656.44;;;-3.51;90.29
49835;BME280;35729;52.090;13.162;2023-02-28T06:22:41;102654.75;;;-3.51;90.67
49835;BME280;35729;52.090;13.162;2023-02-28T06:25:10;102659.00;;;-3.51;90.58
49835;BME280;35729;52.090;13.162;2023-02-28T06:27:38;102661.69;;;-3.50;90.49
49835;BME280;35729;52.090;13.162;2023-02-28T06:30:08;102659.97;;;-3.49;90.68
49835;BME280;35729;52.090;13.162;2023-02-28T06:32:37;102658.31;;;-3.49;90.65
49835;BME280;35729;52.090;13.162;2023-02-28T06:35:06;102657.41;;;-3.49;90.76
49835;BME280;35729;52.090;13.162;2023-02-28T06:37:38;102649.81;;;-3.48;90.98
49835;BME280;35729;52.090;13.162;2023-02-28T06:40:08;102661.09;;;-3.46;90.98
49835;BME280;35729;52.090;13.162;2023-02-28T06:42:38;102665.44;;;-3.45;90.81
49835;BME280;35729;52.090;13.162;2023-02-28T06:45:07;102665.53;;;-3.43;90.93
49835;BME280;35729;52.090;13.162;2023-02-28T06:47:38;102670.66;;;-3.43;90.95
49835;BME280;35729;52.090;13.162;2023-02-28T06:50:09;102667.31;;;-3.42;90.89
49835;BME280;35729;52.090;13.162;2023-02-28T06:52:40;102664.84;;;-3.40;91.07
49835;BME280;35729;52.090;13.162;2023-02-28T06:55:09;102670.19;;;-3.37;91.04
49835;BME280;35729;52.090;13.162;2023-02-28T06:57:38;102671.94;;;-3.36;91.09
49835;BME280;35729;52.090;13.162;2023-02-28T07:00:08;102672.94;;;-3.34;91.24
49835;BME280;35729;52.090;13.162;2023-02-28T07:02:37;102683.41;;;-3.31;91.27
49835;BME280;35729;52.090;13.162;2023-02-28T07:05:06;102686.09;;;-3.30;91.29
49835;BME280;35729;52.090;13.162;2023-02-28T07:07:35;102686.19;;;-3.28;91.15
49835;BME280;35729;52.090;13.162;2023-02-28T07:10:10;102685.59;;;-3.24;91.45
49835;BME280;35729;52.090;13.162;2023-02-28T07:12:42;102695.19;;;-3.21;91.42
49835;BME280;35729;52.090;13.162;2023-02-28T07:15:10;102690.28;;;-3.18;91.60
49835;BME280;35729;52.090;13.162;2023-02-28T07:17:39;102698.25;;;-3.14;91.24
49835;BME280;35729;52.090;13.162;2023-02-28T07:20:09;102690.88;;;-3.09;91.31
49835;BME280;35729;52.090;13.162;2023-02-28T07:22:37;102687.59;;;-3.06;91.42
49835;BME280;35729;52.090;13.162;2023-02-28T07:25:10;102690.56;;;-3.00;91.20
49835;BME280;35729;52.090;13.162;2023-02-28T07:27:38;102693.31;;;-2.97;91.40
49835;BME280;35729;52.090;13.162;2023-02-28T07:30:08;102697.91;;;-2.93;91.23
49835;BME280;35729;52.090;13.162;2023-02-28T07:32:37;102696.38;;;-2.89;91.25
49835;BME280;35729;52.090;13.162;2023-02-28T07:35:06;102689.00;;;-2.85;91.34
49835;BME280;35729;52.090;13.162;2023-02-28T07:37:35;102688.38;;;-2.81;91.57
49835;BME280;35729;52.090;13.162;2023-02-28T07:40:06;102693.84;;;-2.76;91.25
49835;BME280;35729;52.090;13.162;2023-02-28T07:42:40;102690.66;;;-2.72;91.44
49835;BME280;35729;52.090;13.162;2023-02-28T07:45:10;102690.19;;;-2.66;91.22
49835;BME280;35729;52.090;13.162;2023-02-28T07:47:40;102690.47;;;-2.62;91.31
49835;BME280;35729;52.090;13.162;2023-02-28T07:50:12;102688.19;;;-2.57;90.95
49835;BME280;35729;52.090;13.162;2023-02-28T07:52:41;102692.84;;;-2.51;91.06
49835;BME280;35729;52.090;13.162;2023-02-28T07:55:10;102688.09;;;-2.45;91.05
49835;BME280;35729;52.090;13.162;2023-02-28T07:57:41;102689.66;;;-2.34;91.19
49835;BME280;35729;52.090;13.162;2023-02-28T08:00:11;102685.06;;;-2.24;91.16
49835;BME280;35729;52.090;13.162;2023-02-28T08:02:40;102693.47;;;-2.14;90.97
49835;BME280;35729;52.090;13.162;2023-02-28T08:05:09;102689.50;;;-2.08;90.53
49835;BME280;35729;52.090;13.162;2023-02-28T08:07:37;102689.03;;;-2.01;90.72
49835;BME280;35729;52.090;13.162;2023-02-28T08:10:07;102690.34;;;-1.94;90.20
49835;BME280;35729;52.090;13.162;2023-02-28T08:12:36;102694.16;;;-1.88;90.30
49835;BME280;35729;52.090;13.162;2023-02-28T08:15:08;102688.59;;;-1.81;90.24
49835;BME280;35729;52.090;13.162;2023-02-28T08:17:37;102699.25;;;-1.74;89.50
49835;BME280;35729;52.090;13.162;2023-02-28T08:20:10;102693.66;;;-1.67;89.67
49835;BME280;35729;52.090;13.162;2023-02-28T08:22:39;102699.25;;;-1.59;89.30
49835;BME280;35729;52.090;13.162;2023-02-28T08:25:08;102697.84;;;-1.54;89.14
49835;BME280;35729;52.090;13.162;2023-02-28T08:27:37;102703.47;;;-1.46;88.47
49835;BME280;35729;52.090;13.162;2023-02-28T08:30:10;102701.22;;;-1.40;88.42
49835;BME280;35729;52.090;13.162;2023-02-28T08:32:39;102699.94;;;-1.34;87.99
49835;BME280;35729;52.090;13.162;2023-02-28T08:35:09;102704.63;;;-1.26;86.88
49835;BME280;35729;52.090;13.162;2023-02-28T08:37:37;102702.53;;;-1.19;87.23
49835;BME280;35729;52.090;13.162;2023-02-28T08:40:07;102702.88;;;-1.12;87.35
49835;BME280;35729;52.090;13.162;2023-02-28T08:42:38;102694.69;;;-1.05;85.92
49835;BME280;35729;52.090;13.162;2023-02-28T08:45:10;102705.41;;;-0.98;85.72
49835;BME280;35729;52.090;13.162;2023-02-28T08:47:39;102693.78;;;-0.91;85.16
49835;BME280;35729;52.090;13.162;2023-02-28T08:50:09;102696.81;;;-0.83;85.31
49835;BME280;35729;52.090;13.162;2023-02-28T08:52:42;102693.06;;;-0.73;84.86
49835;BME280;35729;52.090;13.162;2023-02-28T08:55:10;102698.72;;;-0.64;84.43
49835;BME280;35729;52.090;13.162;2023-02-28T08:57:39;102696.63;;;-0.55;83.40
49835;BME280;35729;52.090;13.162;2023-02-28T09:00:11;102699.91;;;-0.42;83.42
49835;BME280;35729;52.090;13.162;2023-02-28T09:02:40;102694.44;;;-0.32;83.04
49835;BME280;35729;52.090;13.162;2023-02-28T09:05:10;102691.47;;;-0.23;81.36
49835;BME280;35729;52.090;13.162;2023-02-28T09:07:38;102693.66;;;-0.14;81.17
49835;BME280;35729;52.090;13.162;2023-02-28T09:10:08;102692.38;;;-0.06;79.76
49835;BME280;35729;52.090;13.162;2023-02-28T09:12:37;102691.16;;;0.04;79.62
49835;BME280;35729;52.090;13.162;2023-02-28T09:15:07;102699.31;;;0.11;80.38
49835;BME280;35729;52.090;13.162;2023-02-28T09:17:38;102686.81;;;0.19;79.14
49835;BME280;35729;52.090;13.162;2023-02-28T09:20:08;102688.91;;;0.26;77.59
49835;BME280;35729;52.090;13.162;2023-02-28T09:22:37;102691.81;;;0.32;77.36
49835;BME280;35729;52.090;13.162;2023-02-28T09:25:06;102684.44;;;0.40;77.05
49835;BME280;35729;52.090;13.162;2023-02-28T09:27:34;102690.84;;;0.47;74.18
49835;BME280;35729;52.090;13.162;2023-02-28T09:30:03;102686.84;;;0.54;75.09
49835;BME280;35729;52.090;13.162;2023-02-28T09:32:32;102689.03;;;0.62;73.89
49835;BME280;35729;52.090;13.162;2023-02-28T09:35:04;102684.16;;;0.69;72.88
49835;BME280;35729;52.090;13.162;2023-02-28T09:37:38;102688.09;;;0.78;72.96
49835;BME280;35729;52.090;13.162;2023-02-28T09:40:09;102691.06;;;0.86;71.18
49835;BME280;35729;52.090;13.162;2023-02-28T09:42:38;102693.97;;;0.92;71.45
49835;BME280;35729;52.090;13.162;2023-02-28T09:45:22;102696.91;;;1.00;69.96
49835;BME280;35729;52.090;13.162;2023-02-28T09:47:54;102692.91;;;1.07;70.00
49835;BME280;35729;52.090;13.162;2023-02-28T09:50:34;102688.06;;;1.13;66.38
49835;BME280;35729;52.090;13.162;2023-02-28T09:53:10;102685.75;;;1.19;67.53
49835;BME280;35729;52.090;13.162;2023-02-28T09:55:44;102685.25;;;1.26;68.73
49835;BME280;35729;52.090;13.162;2023-02-28T09:58:19;102683.03;;;1.34;67.74
49835;BME280;35729;52.090;13.162;2023-02-28T10:00:56;102691.97;;;1.41;66.99
49835;BME280;35729;52.090;13.162;2023-02-28T10:03:31;102676.50;;;1.42;63.73
49835;BME280;35729;52.090;13.162;2023-02-28T10:06:08;102678.69;;;1.53;66.53
49835;BME280;35729;52.090;13.162;2023-02-28T10:08:45;102686.69;;;1.57;63.87
49835;BME280;35729;52.090;13.162;2023-02-28T10:11:19;102679.22;;;1.63;64.59
49835;BME280;35729;52.090;13.162;2023-02-28T10:13:52;102682.97;;;1.70;64.71
49835;BME280;35729;52.090;13.162;2023-02-28T10:16:30;102682.38;;;1.76;61.07
49835;BME280;35729;52.090;13.162;2023-02-28T10:19:03;102678.34;;;1.83;62.79
49835;BME280;35729;52.090;13.162;2023-02-28T10:21:40;102689.03;;;1.90;63.34
49835;BME280;35729;52.090;13.162;2023-02-28T10:24:19;102685.88;;;1.96;63.33
49835;BME280;35729;52.090;13.162;2023-02-28T10:26:48;102678.28;;;2.01;65.36
49835;BME280;35729;52.090;13.162;2023-02-28T10:29:20;102679.31;;;2.04;66.09
49835;BME280;35729;52.090;13.162;2023-02-28T10:31:55;102671.69;;;2.07;62.16
49835;BME280;35729;52.090;13.162;2023-02-28T10:34:24;102677.00;;;2.10;63.79
49835;BME280;35729;52.090;13.162;2023-02-28T10:36:55;102671.94;;;2.14;63.76
49835;BME280;35729;52.090;13.162;2023-02-28T10:39:40;102676.47;;;2.18;63.82
49835;BME280;35729;52.090;13.162;2023-02-28T10:42:21;102674.03;;;2.22;61.27
49835;BME280;35729;52.090;13.162;2023-02-28T10:45:06;102667.31;;;2.26;63.83
49835;BME280;35729;52.090;13.162;2023-02-28T10:47:40;102669.13;;;2.28;63.79
49835;BME280;35729;52.090;13.162;2023-02-28T10:50:37;102669.28;;;2.32;61.74
49835;BME280;35729;52.090;13.162;2023-02-28T10:53:28;102670.31;;;2.35;61.62
49835;BME280;35729;52.090;13.162;2023-02-28T10:56:01;102668.81;;;2.40;63.70
49835;BME280;35729;52.090;13.162;2023-02-28T10:58:45;102670.69;;;2.44;58.47
49835;BME280;35729;52.090;13.162;2023-02-28T11:01:16;102666.66;;;2.51;60.52
49835;BME280;35729;52.090;13.162;2023-02-28T11:03:45;102676.41;;;2.57;61.56
49835;BME280;35729;52.090;13.162;2023-02-28T11:06:17;102666.16;;;2.60;61.40
49835;BME280;35729;52.090;13.162;2023-02-28T11:08:51;102654.22;;;2.64;61.90
49835;BME280;35729;52.090;13.162;2023-02-28T11:11:21;102656.94;;;2.67;63.07
49835;BME280;35729;52.090;13.162;2023-02-28T11:13:52;102657.06;;;2.70;63.59
49835;BME280;35729;52.090;13.162;2023-02-28T11:16:22;102653.66;;;2.71;62.71
49835;BME280;35729;52.090;13.162;2023-02-28T11:19:00;102655.50;;;2.73;63.31
49835;BME280;35729;52.090;13.162;2023-02-28T11:21:31;102653.81;;;2.75;62.91
49835;BME280;35729;52.090;13.162;2023-02-28T11:24:06;102646.19;;;2.79;62.42
49835;BME280;35729;52.090;13.162;2023-02-28T11:26:44;102640.34;;;2.84;61.40
49835;BME280;35729;52.090;13.162;2023-02-28T11:29:20;102644.78;;;2.87;59.93
49835;BME280;35729;52.090;13.162;2023-02-28T11:32:04;102633.72;;;2.91;59.63
49835;BME280;35729;52.090;13.162;2023-02-28T11:34:34;102641.69;;;2.96;60.81
49835;BME280;35729;52.090;13.162;2023-02-28T11:37:04;102638.47;;;3.01;60.97
49835;BME280;35729;52.090;13.162;2023-02-28T11:39:36;102629.22;;;3.08;61.29
49835;BME280;35729;52.090;13.162;2023-02-28T11:42:18;102634.63;;;3.14;60.10
49835;BME280;35729;52.090;13.162;2023-02-28T11:45:00;102628.75;;;3.18;59.29
49835;BME280;35729;52.090;13.162;2023-02-28T11:47:41;102628.81;;;3.20;58.41
49835;BME280;35729;52.090;13.162;2023-02-28T11:50:42;102626.34;;;3.23;58.92
49835;BME280;35729;52.090;13.162;2023-02-28T11:53:19;102622.09;;;3.25;57.90
49835;BME280;35729;52.090;13.162;2023-02-28T11:55:57;102621.34;;;3.28;56.62
49835;BME280;35729;52.090;13.162;2023-02-28T11:58:37;102625.03;;;3.34;60.29
49835;BME280;35729;52.090;13.162;2023-02-28T12:01:28;102623.69;;;3.44;59.73
49835;BME280;35729;52.090;13.162;2023-02-28T12:04:14;102620.56;;;3.53;56.28
49835;BME280;35729;52.090;13.162;2023-02-28T12:06:49;102613.88;;;3.59;60.61
49835;BME280;35729;52.090;13.162;2023-02-28T12:09:36;102611.31;;;3.61;60.03
49835;BME280;35729;52.090;13.162;2023-02-28T12:12:21;102614.06;;;3.64;54.20
49835;BME280;35729;52.090;13.162;2023-02-28T12:15:06;102603.75;;;3.67;58.90
49835;BME280;35729;52.090;13.162;2023-02-28T12:17:52;102611.59;;;3.69;54.83
49835;BME280;35729;52.090;13.162;2023-02-28T12:20:30;102609.09;;;3.70;56.03
49835;BME280;35729;52.090;13.162;2023-02-28T12:23:17;102598.72;;;3.70;53.19
49835;BME280;35729;52.090;13.162;2023-02-28T12:25:58;102604.88;;;3.74;54.64
49835;BME280;35729;52.090;13.162;2023-02-28T12:28:35;102602.56;;;3.82;54.34
49835;BME280;35729;52.090;13.162;2023-02-28T12:31:12;102599.34;;;3.89;53.80
49835;BME280;35729;52.090;13.162;2023-02-28T12:34:09;102602.28;;;3.98;55.35
49835;BME280;35729;52.090;13.162;2023-02-28T12:36:40;102598.13;;;4.03;50.41
49835;BME280;35729;52.090;13.162;2023-02-28T12:39:19;102594.91;;;4.11;53.69
49835;BME280;35729;52.090;13.162;2023-02-28T12:42:00;102590.78;;;4.16;55.20
49835;BME280;35729;52.090;13.162;2023-02-28T12:44:36;102593.56;;;4.22;54.46
49835;BME280;35729;52.090;13.162;2023-02-28T12:47:16;102579.94;;;4.29;53.65
49835;BME280;35729;52.090;13.162;2023-02-28T12:49:48;102582.09;;;4.41;56.11
49835;BME280;35729;52.090;13.162;2023-02-28T12:52:23;102577.47;;;4.60;54.41
49835;BME280;35729;52.090;13.162;2023-02-28T12:54:56;102576.47;;;4.82;54.33
49835;BME280;35729;52.090;13.162;2023-02-28T12:57:35;102573.78;;;5.08;52.89
49835;BME280;35729;52.090;13.162;2023-02-28T13:00:13;102576.28;;;5.33;48.68
49835;BME280;35729;52.090;13.162;2023-02-28T13:03:08;102570.22;;;5.65;47.01
49835;BME280;35729;52.090;13.162;2023-02-28T13:09:08;102568.53;;;6.31;49.72
49835;BME280;35729;52.090;13.162;2023-02-28T13:11:41;102555.38;;;6.61;52.00
49835;BME280;35729;52.090;13.162;2023-02-28T13:14:22;102561.34;;;6.94;45.10
49835;BME280;35729;52.090;13.162;2023-02-28T13:17:11;102554.06;;;7.20;44.64
49835;BME280;35729;52.090;13.162;2023-02-28T13:19:43;102544.94;;;7.41;51.10
49835;BME280;35729;52.090;13.162;2023-02-28T13:22:17;102542.75;;;7.64;50.75
49835;BME280;35729;52.090;13.162;2023-02-28T13:24:48;102538.03;;;7.90;50.70
49835;BME280;35729;52.090;13.162;2023-02-28T13:27:33;102538.50;;;8.17;45.37